Time;durP1;ratioP1;P1;durP2;ratioP2;P2;SDS_P1;SDS_P2;PMS_P1;PMS_P2;Temp;Humidity;BMP_temperature;BMP_pressure;BME280_temperature;BME280_humidity;BME280_pressure;Samples;Min_cycle;Max_cycle;Signal;HPM_P1;HPM_P2
2022/06/26 00:00:26;;;;;;;7.72;6.92;;;;;;;20.67;66.00;99862.86;1800097;77;21026;-82
2022/06/26 00:02:53;;;;;;;7.85;6.78;;;;;;;20.64;66.09;99860.10;1824742;77;21664;-81
2022/06/26 00:05:20;;;;;;;7.28;6.20;;;;;;;20.61;66.24;99868.14;1822724;78;21114;-82
2022/06/26 00:07:46;;;;;;;8.03;6.05;;;;;;;20.64;66.36;99870.08;1810494;78;21193;-80
2022/06/26 00:10:16;;;;;;;7.58;6.10;;;;;;;20.69;66.42;99869.69;1823732;77;21113;-83
2022/06/26 00:12:43;;;;;;;8.43;6.47;;;;;;;20.68;66.46;99867.21;1816508;77;21080;-82
2022/06/26 00:15:10;;;;;;;8.35;6.87;;;;;;;20.61;66.71;99869.49;1814079;77;21034;-82
2022/06/26 00:17:37;;;;;;;7.50;6.33;;;;;;;20.54;66.90;99875.48;1824363;77;21054;-80
2022/06/26 00:20:05;;;;;;;6.95;6.25;;;;;;;20.48;67.10;99875.59;1822164;77;21095;-82
2022/06/26 00:22:33;;;;;;;8.08;6.78;;;;;;;20.45;67.32;99882.78;1823717;77;21095;-81
2022/06/26 00:24:59;;;;;;;8.15;7.10;;;;;;;20.39;67.48;99885.33;1825289;77;21089;-80
2022/06/26 00:27:26;;;;;;;9.60;6.53;;;;;;;20.35;67.76;99890.89;1822319;77;21181;-78
2022/06/26 00:29:53;;;;;;;8.08;6.78;;;;;;;20.29;67.88;99888.30;1820543;77;21069;-77
2022/06/26 00:32:19;;;;;;;8.53;6.45;;;;;;;20.23;68.10;99885.98;1817895;77;21856;-81
2022/06/26 00:34:46;;;;;;;7.20;6.47;;;;;;;20.18;68.30;99885.83;1827244;76;21029;-81
2022/06/26 00:37:13;;;;;;;7.47;6.80;;;;;;;20.13;68.51;99882.48;1818838;76;22036;-80
2022/06/26 00:39:39;;;;;;;6.55;5.75;;;;;;;20.09;68.54;99882.64;1827178;76;21522;-80
2022/06/26 00:42:05;;;;;;;6.92;6.22;;;;;;;20.09;68.60;99881.30;1816708;76;21517;-79
2022/06/26 00:44:32;;;;;;;7.53;6.10;;;;;;;20.17;68.57;99886.37;1827488;76;21718;-79
2022/06/26 00:46:59;;;;;;;6.83;6.12;;;;;;;20.32;68.36;99885.13;1808578;76;21577;-78
2022/06/26 00:49:26;;;;;;;8.35;6.83;;;;;;;20.32;68.36;99887.83;1821012;76;21632;-79
2022/06/26 00:51:54;;;;;;;8.23;6.55;;;;;;;20.30;68.33;99895.33;1824934;76;22869;-80
2022/06/26 00:54:23;;;;;;;7.67;6.58;;;;;;;20.32;68.50;99889.17;1828212;76;21422;-79
2022/06/26 00:56:50;;;;;;;7.95;6.33;;;;;;;20.30;68.51;99893.47;1822460;76;21160;-81
2022/06/26 00:59:16;;;;;;;12.40;7.15;;;;;;;20.30;68.50;99895.33;1829167;76;21569;-80
2022/06/26 01:01:43;;;;;;;7.08;6.15;;;;;;;20.32;68.49;99898.61;1798526;78;21010;-80
2022/06/26 01:04:10;;;;;;;7.00;5.90;;;;;;;20.32;68.57;99892.72;1820029;76;21044;-79
2022/06/26 01:06:37;;;;;;;7.47;6.35;;;;;;;20.31;68.67;99892.41;1800803;77;21524;-80
2022/06/26 01:09:03;;;;;;;11.83;6.83;;;;;;;20.26;68.63;99893.60;1826741;76;21231;-81
2022/06/26 01:11:31;;;;;;;8.53;6.75;;;;;;;20.24;68.77;99894.36;1823704;75;21101;-79
2022/06/26 01:13:57;;;;;;;7.25;6.20;;;;;;;20.20;68.94;99895.37;1827982;76;21573;-78
2022/06/26 01:16:25;;;;;;;7.90;6.85;;;;;;;20.27;68.99;99893.10;1818805;76;21022;-78
2022/06/26 01:18:54;;;;;;;6.70;6.10;;;;;;;20.35;68.85;99892.78;1816373;77;21033;-82
2022/06/26 01:21:22;;;;;;;6.83;6.17;;;;;;;20.35;68.92;99895.47;1790746;78;21120;-81
2022/06/26 01:23:48;;;;;;;6.60;5.95;;;;;;;20.30;69.01;99894.82;1813538;78;21481;-80
2022/06/26 01:26:16;;;;;;;9.18;6.72;;;;;;;20.29;69.08;99898.55;1816258;76;21069;-81
2022/06/26 01:28:43;;;;;;;6.90;6.20;;;;;;;20.28;69.16;99895.58;1814948;76;21061;-81
2022/06/26 01:31:09;;;;;;;6.40;5.80;;;;;;;20.28;69.20;99897.43;1810643;76;21029;-83
2022/06/26 01:33:36;;;;;;;6.60;6.00;;;;;;;20.26;69.25;99899.00;1820535;77;21087;-82
2022/06/26 01:36:06;;;;;;;6.80;6.10;;;;;;;20.20;69.32;99900.77;1822770;76;21078;-81
2022/06/26 01:38:35;;;;;;;7.80;7.00;;;;;;;20.16;69.45;99901.42;1825046;76;21288;-80
2022/06/26 01:41:02;;;;;;;8.30;6.10;;;;;;;20.10;69.60;99901.80;1813439;76;21018;-80
2022/06/26 01:43:31;;;;;;;7.37;6.35;;;;;;;20.02;69.75;99901.59;1826897;76;21027;-82
2022/06/26 01:45:58;;;;;;;6.28;5.67;;;;;;;20.04;69.81;99895.44;1780145;78;21187;-77
2022/06/26 01:48:27;;;;;;;6.47;5.87;;;;;;;20.14;69.62;99902.99;1776466;79;21025;-78
2022/06/26 01:50:55;;;;;;;6.85;6.25;;;;;;;20.13;69.61;99906.76;1821508;76;21030;-81
2022/06/26 01:53:22;;;;;;;9.25;6.17;;;;;;;20.07;69.69;99904.97;1810205;76;20970;-79
2022/06/26 01:55:49;;;;;;;7.65;6.30;;;;;;;20.02;69.83;99908.33;1818009;78;20994;-81
2022/06/26 01:58:17;;;;;;;6.95;6.00;;;;;;;20.00;69.90;99916.36;1820983;76;21111;-82
2022/06/26 02:00:45;;;;;;;7.28;6.28;;;;;;;19.96;69.99;99920.02;1821365;76;21069;-82
2022/06/26 02:03:14;;;;;;;7.47;6.10;;;;;;;19.94;70.17;99919.95;1817085;76;20994;-81
2022/06/26 02:05:41;;;;;;;7.67;6.58;;;;;;;19.90;70.28;99918.23;1815542;76;20958;-82
2022/06/26 02:08:08;;;;;;;8.08;6.22;;;;;;;19.87;70.39;99928.11;1815904;76;20982;-80
2022/06/26 02:13:43;;;;;;;6.90;6.20;;;;;;;19.84;70.79;99926.69;1811437;76;21049;-80
2022/06/26 02:16:18;;;;;;;7.03;6.33;;;;;;;19.92;70.67;99929.61;1826316;78;21553;-82
2022/06/26 02:18:48;;;;;;;6.92;6.08;;;;;;;19.87;71.08;99929.98;1797394;79;20985;-81
2022/06/26 02:21:17;;;;;;;7.42;6.60;;;;;;;19.84;71.49;99938.01;1804458;76;21100;-80
2022/06/26 02:23:47;;;;;;;7.33;6.62;;;;;;;19.79;71.82;99936.50;1812451;77;21110;-80
2022/06/26 02:26:13;;;;;;;7.15;6.17;;;;;;;19.69;72.09;99937.52;1806989;76;21029;-82
2022/06/26 02:28:40;;;;;;;6.05;5.55;;;;;;;19.68;72.54;99943.41;1828906;76;21026;-81
2022/06/26 02:31:07;;;;;;;7.80;6.40;;;;;;;19.71;72.66;99944.85;1825340;76;21002;-81
2022/06/26 02:33:38;;;;;;;7.45;6.28;;;;;;;19.76;72.78;99942.33;1829118;76;21061;-81
2022/06/26 02:36:03;;;;;;;7.15;5.75;;;;;;;19.75;72.88;99947.42;1793914;79;21199;-82
2022/06/26 02:38:34;;;;;;;8.15;6.97;;;;;;;19.76;73.08;99943.67;1806737;77;21053;-80
2022/06/26 02:41:02;;;;;;;7.47;6.53;;;;;;;19.81;72.99;99949.23;1819972;77;21042;-79
2022/06/26 02:43:28;;;;;;;6.35;5.75;;;;;;;19.84;72.93;99948.79;1787953;79;21018;-80
2022/06/26 02:45:56;;;;;;;7.50;6.87;;;;;;;19.92;72.40;99954.41;1818281;79;21062;-81
2022/06/26 02:48:23;;;;;;;6.80;6.15;;;;;;;19.96;71.95;99954.26;1814955;77;21099;-82
2022/06/26 02:50:49;;;;;;;7.30;6.60;;;;;;;19.99;71.56;99955.14;1814396;77;20928;-81
2022/06/26 02:53:16;;;;;;;8.38;6.83;;;;;;;20.03;71.01;99953.67;1804103;77;21011;-83
2022/06/26 02:55:43;;;;;;;7.42;5.92;;;;;;;20.08;70.61;99955.67;1779457;79;21084;-82
2022/06/26 02:58:11;;;;;;;6.75;6.15;;;;;;;20.17;70.30;99953.80;1818291;77;21001;-82
2022/06/26 03:00:41;;;;;;;10.38;6.85;;;;;;;20.30;69.97;99956.02;1818546;77;21128;-82
2022/06/26 03:03:07;;;;;;;7.97;7.17;;;;;;;20.32;69.70;99953.41;1784528;79;21019;-84
2022/06/26 03:05:34;;;;;;;7.30;6.60;;;;;;;20.34;69.46;99954.02;1770935;77;21066;-84
2022/06/26 03:08:00;;;;;;;7.80;6.60;;;;;;;20.36;69.26;99949.74;1818491;77;21005;-81
2022/06/26 03:10:28;;;;;;;10.40;6.60;;;;;;;20.37;69.11;99954.07;1804509;77;21105;-82
2022/06/26 03:12:54;;;;;;;7.83;6.30;;;;;;;20.39;68.95;99962.76;1810653;77;21737;-81
2022/06/26 03:15:21;;;;;;;6.53;5.92;;;;;;;20.39;68.70;99964.11;1821684;78;20994;-84
2022/06/26 03:17:48;;;;;;;6.70;6.00;;;;;;;20.39;68.67;99968.16;1825355;75;20939;-83
2022/06/26 03:20:18;;;;;;;6.92;6.17;;;;;;;20.38;68.62;99963.30;1808099;78;21046;-86
2022/06/26 03:22:46;;;;;;;6.92;6.33;;;;;;;20.40;68.62;99970.63;1819707;79;21440;-84
2022/06/26 03:25:12;;;;;;;6.97;5.67;;;;;;;20.43;68.47;99976.91;1833183;77;21014;-84
2022/06/26 03:27:40;;;;;;;6.20;5.20;;;;;;;20.44;68.37;99971.01;1798090;79;21013;-83
2022/06/26 03:30:09;;;;;;;5.72;5.22;;;;;;;20.51;68.28;99970.37;1809168;77;21068;-84
2022/06/26 03:32:36;;;;;;;6.83;5.53;;;;;;;20.64;68.10;99969.95;1791907;79;21065;-84
2022/06/26 03:35:06;;;;;;;6.58;5.33;;;;;;;20.69;67.97;99966.86;1808688;78;21022;-85
2022/06/26 03:37:33;;;;;;;9.53;6.10;;;;;;;20.74;67.86;99964.81;1794834;77;21034;-83
2022/06/26 03:39:59;;;;;;;5.72;5.12;;;;;;;20.80;67.89;99964.73;1799460;79;21614;-87
2022/06/26 03:42:27;;;;;;;8.25;5.22;;;;;;;20.88;67.67;99963.58;1810668;79;21035;-85
2022/06/26 03:44:54;;;;;;;7.97;5.65;;;;;;;20.94;67.44;99959.95;1810063;79;21085;-84
2022/06/26 03:47:20;;;;;;;7.25;6.55;;;;;;;21.01;67.44;99976.05;1807990;79;21054;-85
2022/06/26 03:49:53;;;;;;;8.33;6.00;;;;;;;21.06;67.34;99974.02;1789925;77;21868;-84
2022/06/26 03:52:22;;;;;;;6.95;5.55;;;;;;;21.11;67.12;99978.18;1742683;80;21017;-82
2022/06/26 03:54:49;;;;;;;7.92;5.30;;;;;;;21.14;66.73;99981.25;1764901;80;21001;-83
2022/06/26 03:57:17;;;;;;;8.00;5.60;;;;;;;21.17;66.53;99986.20;1742347;81;21053;-83
2022/06/26 03:59:44;;;;;;;9.03;4.95;;;;;;;21.21;66.36;99984.67;1750500;80;21033;-85
2022/06/26 04:02:13;;;;;;;6.25;5.42;;;;;;;21.25;66.19;99980.14;1760690;80;21129;-85
2022/06/26 04:04:41;;;;;;;7.00;5.30;;;;;;;21.24;66.28;99974.45;1761517;80;21246;-83
2022/06/26 04:07:12;;;;;;;5.83;5.37;;;;;;;21.27;66.28;99986.16;1791491;78;21017;-83
2022/06/26 04:09:41;;;;;;;11.18;5.83;;;;;;;21.28;66.28;99975.63;1754511;81;21033;-85
2022/06/26 04:12:10;;;;;;;7.25;5.20;;;;;;;21.31;66.27;99971.94;1766569;80;21037;-83
2022/06/26 04:14:41;;;;;;;6.65;6.05;;;;;;;21.37;66.20;99971.00;1758573;79;21886;-87
2022/06/26 04:17:08;;;;;;;6.55;5.87;;;;;;;21.43;66.11;99976.00;1786343;80;21013;-83
2022/06/26 04:19:37;;;;;;;7.55;5.65;;;;;;;21.49;65.91;99979.69;1774962;78;21021;-85
2022/06/26 04:22:04;;;;;;;5.92;5.35;;;;;;;21.55;65.80;99971.98;1786155;78;21025;-84
2022/06/26 04:24:31;;;;;;;6.00;5.40;;;;;;;21.59;65.55;99970.45;1797097;77;21037;-82
2022/06/26 04:26:57;;;;;;;6.15;4.83;;;;;;;21.64;65.36;99965.17;1775305;80;21172;-83
2022/06/26 04:29:26;;;;;;;5.65;5.15;;;;;;;21.70;65.25;99976.39;1775452;80;20985;-84
2022/06/26 04:31:53;;;;;;;5.55;5.05;;;;;;;21.77;65.07;99975.75;1796423;78;21014;-86
2022/06/26 04:34:22;;;;;;;8.03;5.80;;;;;;;21.85;64.93;99972.41;1794222;78;20992;-85
2022/06/26 04:36:50;;;;;;;6.97;4.80;;;;;;;21.94;64.82;99977.20;1789846;78;21026;-83
2022/06/26 04:39:19;;;;;;;6.17;5.58;;;;;;;22.03;64.62;99979.00;1823590;76;21103;-80
2022/06/26 04:41:47;;;;;;;6.03;5.50;;;;;;;22.13;64.41;99972.45;1816328;76;21645;-84
2022/06/26 04:44:14;;;;;;;5.95;5.35;;;;;;;22.25;64.16;99972.98;1828545;78;21057;-72
2022/06/26 04:46:49;;;;;;;5.85;5.05;;;;;;;22.37;63.86;99976.50;1823713;78;21052;-75
2022/06/26 04:49:20;;;;;;;6.87;5.55;;;;;;;22.49;63.67;99979.16;1827639;76;22253;-74
2022/06/26 04:51:47;;;;;;;5.28;4.87;;;;;;;22.61;63.26;99978.58;1820656;76;21171;-72
2022/06/26 04:54:18;;;;;;;7.08;5.10;;;;;;;22.74;62.99;99978.83;1804393;77;21008;-72
2022/06/26 04:56:47;;;;;;;6.00;5.50;;;;;;;22.88;62.71;99980.16;1807896;77;21191;-74
2022/06/26 04:59:14;;;;;;;9.45;5.62;;;;;;;23.01;62.46;99979.58;1818825;77;21056;-73
2022/06/26 05:01:40;;;;;;;6.30;5.37;;;;;;;23.13;62.02;99980.35;1824126;76;21509;-73
2022/06/26 05:04:12;;;;;;;6.15;5.03;;;;;;;23.21;61.80;99982.65;1823451;77;21145;-75
2022/06/26 05:06:43;;;;;;;6.97;5.37;;;;;;;23.25;61.67;99987.86;1822089;77;21616;-73
2022/06/26 05:09:16;;;;;;;6.85;5.15;;;;;;;23.30;61.56;99987.14;1821512;76;26536;-74
2022/06/26 05:11:44;;;;;;;7.12;5.30;;;;;;;;;;1825090;76;21107;-74
2022/06/26 05:14:12;;;;;;;6.15;5.55;;;;;;;23.42;61.15;99989.77;1828025;77;21010;-74
2022/06/26 05:16:50;;;;;;;6.25;5.62;;;;;;;23.43;61.08;99990.04;1817248;78;21168;-73
2022/06/26 05:19:17;;;;;;;6.55;5.58;;;;;;;23.45;61.04;99990.10;1812029;76;21068;-73
2022/06/26 05:21:44;;;;;;;5.78;5.25;;;;;;;23.48;60.84;99995.01;1799766;76;21049;-73
2022/06/26 05:24:11;;;;;;;8.08;5.65;;;;;;;23.49;60.77;100002.63;1817941;78;21022;-73
2022/06/26 05:26:39;;;;;;;6.20;5.70;;;;;;;23.51;60.69;99999.95;1828248;78;21025;-75
2022/06/26 05:29:05;;;;;;;7.12;5.72;;;;;;;23.54;60.52;99998.63;1827387;76;21153;-74
2022/06/26 05:31:32;;;;;;;6.53;5.00;;;;;;;23.60;60.49;99998.17;1822342;78;21105;-75
2022/06/26 05:33:59;;;;;;;5.78;5.10;;;;;;;23.65;60.43;100000.42;1811871;77;21521;-76
2022/06/26 05:36:27;;;;;;;5.80;5.20;;;;;;;23.70;60.45;99996.96;1816384;77;21058;-76
2022/06/26 05:38:54;;;;;;;5.92;5.33;;;;;;;23.80;60.36;100007.17;1824543;76;21109;-75
2022/06/26 05:41:22;;;;;;;5.35;4.92;;;;;;;23.88;60.12;100010.30;1796609;78;21769;-76
2022/06/26 05:43:48;;;;;;;6.28;4.83;;;;;;;23.99;59.92;100004.48;1796413;78;21001;-75
2022/06/26 05:46:17;;;;;;;6.00;5.40;;;;;;;24.13;59.81;100008.47;1802128;76;21025;-74
2022/06/26 05:48:48;;;;;;;6.53;5.03;;;;;;;24.29;59.57;100008.12;1817849;77;21039;-75
2022/06/26 05:51:20;;;;;;;6.08;4.83;;;;;;;24.45;59.26;100006.41;1822356;76;21037;-75
2022/06/26 05:53:51;;;;;;;5.87;4.97;;;;;;;24.56;58.96;100005.22;1790603;77;21131;-75
2022/06/26 05:56:19;;;;;;;5.00;4.60;;;;;;;24.64;58.77;100004.76;1803754;78;21524;-74
2022/06/26 05:58:50;;;;;;;5.90;4.90;;;;;;;24.67;58.57;100002.91;1827847;76;21034;-75
2022/06/26 06:01:21;;;;;;;5.17;4.67;;;;;;;24.68;58.56;100006.70;1824661;76;21027;-75
2022/06/26 06:03:50;;;;;;;5.47;5.03;;;;;;;24.66;58.65;100000.70;1825224;76;21557;-73
2022/06/26 06:06:17;;;;;;;5.17;4.78;;;;;;;24.72;58.05;100007.02;1829332;77;21108;-73
2022/06/26 06:08:43;;;;;;;4.92;4.50;;;;;;;24.68;57.87;100005.34;1824339;77;21077;-75
2022/06/26 06:11:10;;;;;;;6.10;4.70;;;;;;;24.65;57.71;100003.70;1813222;76;21019;-74
2022/06/26 06:13:37;;;;;;;5.90;4.55;;;;;;;24.67;57.75;100008.33;1829331;78;21093;-76
2022/06/26 06:16:06;;;;;;;5.42;4.92;;;;;;;24.72;57.71;100003.78;1829215;78;21034;-76
2022/06/26 06:18:33;;;;;;;7.22;4.80;;;;;;;24.80;57.61;100005.22;1826699;76;21106;-74
2022/06/26 06:21:01;;;;;;;5.33;4.87;;;;;;;24.87;57.72;100012.61;1803209;76;21017;-76
2022/06/26 06:23:27;;;;;;;5.20;4.65;;;;;;;24.96;57.60;100008.09;1808318;76;21096;-76
2022/06/26 06:25:54;;;;;;;5.37;4.53;;;;;;;25.06;57.38;100005.46;1829234;77;20985;-74
2022/06/26 06:28:20;;;;;;;4.90;4.47;;;;;;;25.12;57.19;100013.39;1821142;76;21081;-77
2022/06/26 06:30:47;;;;;;;5.40;4.90;;;;;;;25.20;57.38;100009.38;1831205;76;21116;-74
2022/06/26 06:33:15;;;;;;;4.28;3.87;;;;;;;25.27;57.17;100016.02;1828920;76;21525;-77
2022/06/26 06:35:44;;;;;;;6.83;4.87;;;;;;;25.38;56.82;100010.10;1826699;76;21046;-74
2022/06/26 06:38:11;;;;;;;6.00;4.75;;;;;;;25.48;56.65;100017.81;1828119;76;21038;-74
2022/06/26 06:40:40;;;;;;;5.65;4.80;;;;;;;25.60;56.24;100011.38;1820469;76;21016;-74
2022/06/26 06:43:11;;;;;;;5.65;4.08;;;;;;;25.72;55.91;100017.98;1828175;77;21593;-76
2022/06/26 06:45:55;;;;;;;5.03;4.25;;;;;;;25.84;55.51;100020.77;1823283;77;21035;-76
2022/06/26 06:48:24;;;;;;;5.03;4.62;;;;;;;25.92;55.48;100015.41;1822708;76;20988;-75
2022/06/26 06:51:09;;;;;;;6.65;3.70;;;;;;;25.98;55.45;100018.98;1832228;77;21043;-75
2022/06/26 06:53:36;;;;;;;7.17;4.40;;;;;;;26.00;55.40;100016.29;1811925;78;21004;-75
2022/06/26 06:56:04;;;;;;;5.17;4.35;;;;;;;26.05;55.41;100013.58;1793910;78;21137;-76
2022/06/26 06:58:31;;;;;;;5.22;4.37;;;;;;;26.12;55.41;100016.63;1831983;76;20996;-74
2022/06/26 07:00:57;;;;;;;4.15;3.80;;;;;;;26.19;54.90;100017.19;1831514;77;21058;-76
2022/06/26 07:03:24;;;;;;;4.37;3.98;;;;;;;26.22;54.74;100012.03;1834093;77;21038;-76
2022/06/26 07:05:51;;;;;;;6.17;4.12;;;;;;;26.28;54.48;100011.52;1825924;77;21568;-75
2022/06/26 07:08:18;;;;;;;4.97;3.77;;;;;;;26.32;54.35;100013.98;1810614;76;21766;-74
2022/06/26 07:10:44;;;;;;;9.45;3.85;;;;;;;26.33;53.73;100017.00;1803983;77;21575;-74
2022/06/26 07:13:11;;;;;;;4.62;3.98;;;;;;;26.29;53.53;100015.89;1827468;77;21544;-76
2022/06/26 07:15:38;;;;;;;3.87;3.47;;;;;;;26.25;53.50;100019.69;1828826;76;21078;-76
2022/06/26 07:18:04;;;;;;;6.55;3.83;;;;;;;26.26;53.46;100018.59;1804684;76;21004;-76
2022/06/26 07:20:31;;;;;;;5.47;4.22;;;;;;;26.27;53.22;100017.52;1818250;76;21289;-73
2022/06/26 07:22:58;;;;;;;4.35;4.00;;;;;;;26.33;53.18;100021.60;1832730;77;20988;-75
2022/06/26 07:25:26;;;;;;;8.08;3.75;;;;;;;26.36;53.34;100019.17;1809152;77;20988;-73
2022/06/26 07:27:55;;;;;;;6.10;3.62;;;;;;;26.42;53.59;100026.82;1829893;76;21015;-76
2022/06/26 07:30:22;;;;;;;4.78;3.75;;;;;;;26.47;52.64;100022.22;1834338;77;21015;-75
2022/06/26 07:32:50;;;;;;;3.83;3.52;;;;;;;26.50;52.56;100022.22;1824869;77;21147;-74
2022/06/26 07:35:17;;;;;;;6.45;3.50;;;;;;;26.57;52.21;100024.16;1830071;78;21393;-75
2022/06/26 07:37:46;;;;;;;4.35;3.45;;;;;;;26.64;52.10;100013.05;1822311;76;21053;-74
2022/06/26 07:40:12;;;;;;;4.75;3.27;;;;;;;26.74;51.89;100013.63;1787493;78;21039;-74
2022/06/26 07:42:39;;;;;;;4.17;3.35;;;;;;;26.86;51.74;100011.45;1813696;76;21093;-76
2022/06/26 07:45:07;;;;;;;3.77;3.40;;;;;;;26.97;51.47;100006.30;1808025;76;21223;-74
2022/06/26 07:47:35;;;;;;;3.45;3.12;;;;;;;27.12;51.75;99992.40;1825841;76;21581;-75
2022/06/26 07:50:46;;;;;;;6.15;3.90;;;;;;;27.30;51.10;99988.36;1831317;77;22640;-73
2022/06/26 07:53:13;;;;;;;3.33;3.10;;;;;;;27.32;51.06;99997.09;1815831;78;21029;-74
2022/06/26 07:55:40;;;;;;;4.33;3.65;;;;;;;27.38;50.68;99995.44;1830153;76;21122;-75
2022/06/26 07:58:06;;;;;;;3.55;3.25;;;;;;;27.38;50.68;99991.90;1799207;76;21481;-75
2022/06/26 08:00:33;;;;;;;3.47;3.17;;;;;;;27.41;50.59;99994.06;1765290;78;22193;-75
2022/06/26 08:03:08;;;;;;;3.80;3.50;;;;;;;27.42;50.61;99993.80;1824553;78;20989;-76
2022/06/26 08:05:36;;;;;;;4.00;3.65;;;;;;;27.50;50.64;99991.61;1817400;76;21577;-74
2022/06/26 08:08:24;;;;;;;5.10;3.10;;;;;;;27.57;50.52;99998.42;1807405;76;21107;-75
2022/06/26 08:10:51;;;;;;;6.45;3.40;;;;;;;27.64;50.33;99996.77;1718998;82;21100;-76
2022/06/26 08:13:17;;;;;;;5.83;3.37;;;;;;;27.71;49.88;99995.94;1732415;82;21134;-74
2022/06/26 08:15:44;;;;;;;3.55;3.25;;;;;;;27.75;49.64;100006.58;1750177;82;21563;-76
2022/06/26 08:18:11;;;;;;;3.42;3.12;;;;;;;27.77;49.29;100004.94;1716077;82;21512;-75
2022/06/26 08:20:38;;;;;;;3.70;3.12;;;;;;;27.80;49.34;100009.86;1739037;82;21782;-74
2022/06/26 08:23:04;;;;;;;5.20;3.10;;;;;;;27.84;49.29;100010.38;1750089;81;21052;-74
2022/06/26 08:25:31;;;;;;;8.95;8.25;;;;;;;27.87;48.89;100006.83;1728019;81;21017;-75
2022/06/26 08:27:59;;;;;;;6.00;3.80;;;;;;;27.84;48.45;100007.66;1719073;82;21124;-75
2022/06/26 08:30:26;;;;;;;3.52;3.22;;;;;;;27.83;48.59;100009.29;1750126;82;21046;-74
2022/06/26 08:32:58;;;;;;;4.67;3.40;;;;;;;27.86;48.71;100018.30;1750348;81;21114;-74
2022/06/26 08:35:23;;;;;;;3.25;3.05;;;;;;;27.90;48.63;100016.69;1750012;80;21051;-75
2022/06/26 08:37:49;;;;;;;3.37;3.08;;;;;;;27.95;47.27;100011.22;1723981;81;21047;-73
2022/06/26 08:40:16;;;;;;;3.55;2.98;;;;;;;27.99;46.79;100008.20;1746169;81;21004;-75
2022/06/26 08:42:43;;;;;;;4.65;2.70;;;;;;;28.10;46.55;99999.97;1702836;82;21101;-75
2022/06/26 08:45:10;;;;;;;3.50;3.30;;;;;;;28.26;46.57;99993.37;1708028;83;21122;-74
2022/06/26 08:47:39;;;;;;;6.12;2.95;;;;;;;28.43;45.96;99997.94;1716678;82;21673;-72
2022/06/26 08:50:07;;;;;;;3.17;2.87;;;;;;;28.55;45.89;99995.42;1721214;81;21086;-74
2022/06/26 08:52:35;;;;;;;4.33;3.50;;;;;;;28.67;45.81;99995.11;1716808;82;21038;-76
2022/06/26 08:55:04;;;;;;;3.58;2.92;;;;;;;28.78;45.26;99998.86;1748040;82;21031;-75
2022/06/26 08:57:33;;;;;;;3.98;3.67;;;;;;;28.83;45.19;100008.38;1721553;82;22088;-75
2022/06/26 09:00:00;;;;;;;3.62;3.10;;;;;;;28.94;45.24;99998.77;1688825;84;21089;-74
2022/06/26 09:02:27;;;;;;;3.47;3.15;;;;;;;29.17;45.10;99999.99;1692407;84;21029;-75
2022/06/26 09:04:55;;;;;;;4.47;3.33;;;;;;;29.40;44.35;99986.92;1688005;84;21040;-76
2022/06/26 09:07:23;;;;;;;5.70;3.30;;;;;;;29.46;44.11;100001.91;1674667;84;21081;-76
2022/06/26 09:09:51;;;;;;;4.72;3.30;;;;;;;29.41;44.04;99994.02;1686235;83;21201;-76
2022/06/26 09:12:20;;;;;;;4.40;3.60;;;;;;;29.39;44.31;99999.52;1687121;83;21073;-75
2022/06/26 09:14:52;;;;;;;4.97;3.30;;;;;;;29.43;44.01;100000.58;1686467;84;21093;-76
2022/06/26 09:17:23;;;;;;;3.83;3.47;;;;;;;29.57;43.96;99997.98;1665005;84;21589;-76
2022/06/26 09:19:51;;;;;;;4.03;3.25;;;;;;;29.79;43.76;99986.58;1686218;84;21110;-75
2022/06/26 09:22:17;;;;;;;7.78;3.30;;;;;;;29.95;43.65;99985.85;1698803;84;21193;-75
2022/06/26 09:24:57;;;;;;;3.55;3.25;;;;;;;30.00;43.10;99985.80;1677828;84;21080;-81
2022/06/26 09:27:23;;;;;;;3.65;3.20;;;;;;;30.19;43.07;99988.03;1684579;84;21088;-81
2022/06/26 09:29:55;;;;;;;5.95;3.70;;;;;;;30.63;42.31;99979.80;1675949;84;21154;-80
2022/06/26 09:32:23;;;;;;;4.75;3.58;;;;;;;31.16;41.41;99987.24;1679305;84;21076;-80
2022/06/26 09:34:52;;;;;;;6.30;3.52;;;;;;;31.79;40.75;99974.63;1675864;84;21358;-81
2022/06/26 09:37:20;;;;;;;4.35;3.95;;;;;;;32.33;39.77;99977.13;1684995;84;22093;-78
2022/06/26 09:39:46;;;;;;;4.28;3.05;;;;;;;32.58;39.68;99981.27;1688399;83;21032;-79
2022/06/26 09:42:22;;;;;;;6.37;3.77;;;;;;;32.70;39.52;99977.44;1697508;84;21069;-80
2022/06/26 09:44:50;;;;;;;4.25;3.50;;;;;;;32.54;39.35;99984.36;1678985;84;21071;-80
2022/06/26 09:47:27;;;;;;;4.62;3.80;;;;;;;32.38;39.68;99988.59;1689470;84;21258;-80
2022/06/26 09:49:56;;;;;;;4.75;3.40;;;;;;;32.23;39.53;99982.28;1693137;84;20942;-79
2022/06/26 09:52:28;;;;;;;5.08;3.50;;;;;;;32.08;39.64;99983.97;1679616;84;21080;-80
2022/06/26 09:54:57;;;;;;;12.18;4.05;;;;;;;31.94;39.73;99983.38;1690594;84;21101;-81
2022/06/26 09:57:26;;;;;;;5.60;3.25;;;;;;;32.04;40.03;99988.45;1682622;83;21124;-79
2022/06/26 09:59:54;;;;;;;5.37;2.90;;;;;;;32.44;39.71;99981.84;1696592;84;21181;-79
2022/06/26 10:07:54;;;;;;;3.47;3.17;;;;;;;34.08;36.71;99970.89;1667009;85;21555;-80
2022/06/26 10:10:25;;;;;;;3.35;3.15;;;;;;;34.69;36.06;99971.59;1698725;82;21563;-80
2022/06/26 10:12:55;;;;;;;4.03;3.67;;;;;;;34.97;35.65;99977.02;1737827;82;21131;-83
2022/06/26 10:15:27;;;;;;;3.60;3.30;;;;;;;35.08;35.71;99973.91;1699034;83;21072;-80
2022/06/26 10:18:30;;;;;;;3.52;3.33;;;;;;;35.07;35.58;99962.64;1717609;82;21090;-80
2022/06/26 10:20:57;;;;;;;4.65;3.62;;;;;;;35.02;35.45;99977.41;1719917;82;21400;-79
2022/06/26 10:23:34;;;;;;;3.55;3.25;;;;;;;34.72;35.60;99973.71;1713561;82;21057;-80
2022/06/26 10:26:20;;;;;;;3.75;3.45;;;;;;;34.69;35.79;99973.77;1710071;82;21029;-83
2022/06/26 10:29:09;;;;;;;4.83;3.20;;;;;;;34.81;35.64;99975.91;1717757;82;21521;-82
2022/06/26 10:31:50;;;;;;;3.87;3.58;;;;;;;34.84;34.83;99973.28;1731845;82;21652;-79
2022/06/26 10:34:23;;;;;;;7.12;3.52;;;;;;;34.68;34.85;99974.12;1731828;82;21155;-81
2022/06/26 10:37:14;;;;;;;3.25;2.95;;;;;;;34.41;35.05;99977.39;1714739;82;21141;-80
2022/06/26 10:39:46;;;;;;;4.80;3.67;;;;;;;34.33;35.46;99978.20;1712993;82;21651;-81
2022/06/26 10:45:31;;;;;;;4.85;3.17;;;;;;;34.29;35.85;99965.62;1721068;82;21080;-82
2022/06/26 10:48:01;;;;;;;3.47;2.90;;;;;;;34.13;36.03;99967.96;1702726;84;21077;-82
2022/06/26 10:50:40;;;;;;;3.50;3.20;;;;;;;33.80;36.54;99963.41;1715839;83;21000;-80
2022/06/26 10:53:22;;;;;;;3.30;3.00;;;;;;;33.49;36.90;99975.23;1713341;82;21256;-80
2022/06/26 10:55:58;;;;;;;4.55;4.25;;;;;;;33.09;37.36;99977.90;1725467;82;21117;-79
2022/06/26 10:58:35;;;;;;;3.62;3.02;;;;;;;32.87;37.78;99977.31;1722252;82;21077;-80
2022/06/26 11:01:08;;;;;;;3.83;3.37;;;;;;;32.73;37.95;99975.99;1709157;82;21088;-81
2022/06/26 11:03:35;;;;;;;6.50;3.33;;;;;;;32.63;38.32;99976.23;1725797;82;21046;-80
2022/06/26 11:06:08;;;;;;;4.05;3.33;;;;;;;32.52;38.48;99968.17;1731061;82;21337;-85
2022/06/26 11:08:51;;;;;;;4.92;3.30;;;;;;;32.43;38.32;99966.47;1707535;82;21032;-83
2022/06/26 11:11:25;;;;;;;4.97;3.72;;;;;;;32.26;38.61;99977.55;1718677;82;21073;-85
2022/06/26 11:13:59;;;;;;;4.60;3.22;;;;;;;32.12;39.01;99973.98;1735731;82;21105;-84
2022/06/26 11:16:42;;;;;;;4.33;3.92;;;;;;;32.07;39.32;99966.68;1716517;82;21017;-83
2022/06/26 11:19:24;;;;;;;3.52;3.22;;;;;;;32.02;39.48;99968.72;1728963;82;21402;-84
2022/06/26 11:21:53;;;;;;;3.52;3.22;;;;;;;31.93;39.57;99972.69;1735799;82;20988;-83
2022/06/26 11:24:20;;;;;;;4.65;3.77;;;;;;;31.84;39.64;99974.55;1717304;81;21093;-84
2022/06/26 11:26:46;;;;;;;3.77;3.45;;;;;;;31.84;39.74;99971.23;1730660;82;21186;-84
2022/06/26 11:29:13;;;;;;;6.53;3.52;;;;;;;31.93;39.59;99971.31;1732053;82;21081;-83
2022/06/26 11:31:39;;;;;;;6.85;2.98;;;;;;;32.22;39.36;99972.42;1735717;82;21182;-84
2022/06/26 11:34:12;;;;;;;6.22;3.20;;;;;;;32.44;38.74;99969.48;1674501;82;21053;-84
2022/06/26 11:36:51;;;;;;;;;;;;;;;32.78;38.41;99968.17;1734087;82;21061;-85
2022/06/26 11:39:18;;;;;;;3.12;2.92;;;;;;;33.26;38.03;99962.91;1720647;82;20192;-84
2022/06/26 11:41:47;;;;;;;3.30;3.02;;;;;;;33.55;37.55;99969.02;1737432;82;21604;-84
2022/06/26 11:44:14;;;;;;;4.42;2.90;;;;;;;33.85;36.88;99961.33;1690568;82;21213;-77
2022/06/26 11:46:40;;;;;;;3.15;2.85;;;;;;;34.19;36.38;99968.11;1715563;82;21557;-79
2022/06/26 11:49:11;;;;;;;3.05;2.70;;;;;;;34.74;35.61;99963.97;1705491;84;20995;-81
2022/06/26 11:51:38;;;;;;;3.22;2.90;;;;;;;35.49;34.76;99958.76;1717811;82;21548;-81